Nickelsville, VA

5:39 PM EDT on October 20, 2014 (GMT -0400)
W4CSN, Nottingham | Change Station
CLOSE
Current Station
Personal Weather Station
Location: Gate City, VA
Elevation: 1309 ft
Nearby Weather Stations

Elev 1309 ft 36.63 °N, 82.52 °W | Updated 4 seconds ago

Overcast
Overcast
61.3 °F
Feels Like 61.3 °F
N
0.0
Wind Variable Wind from North

Today
High -- | Low -- °F
--% Chance of Precip.
Yesterday
High -- | Low -- °F
Precip. -- in
7:41 AM 6:46 PM
Waning Crescent, 9% visible
Pressure 29.99 in
Visibility 10.0 miles
Clouds Scattered Clouds 6500 ft
Mostly Cloudy 8000 ft
Overcast 9000 ft
Dew Point 51 °F
Humidity 69%
Rainfall 0.00 in
Snow Depth Not available.
UV 0 out of 12
Pollen 1.40 out of 12
Air Quality Not available.
Flu Activity Local Activity
METAR KLNP 202115Z AUTO 18008KT 10SM SCT065 BKN080 OVC090 12/07 A2999 RMK AO2

More Conditions Fewer Conditions

Pressure 29.99 in
Visibility 10.0 miles
Clouds Scattered Clouds 6500 ft
Mostly Cloudy 8000 ft
Overcast 9000 ft
Dew Point 51 °F
Humidity 69%
Rainfall 0.00 in
Snow Depth Not available.
UV 0 out of 12
Pollen 1.40 out of 12
Air Quality Not available.
Flu Activity Local Activity
METAR KLNP 202115Z AUTO 18008KT 10SM SCT065 BKN080 OVC090 12/07 A2999 RMK AO2

More Conditions Fewer Conditions

10-Day Weather Forecast

Almanac

Astronomy

Oct. 20, 2014 Rise Set
Actual Time 7:41 AM EDT 6:46 PM EDT
Civil Twilight 7:15 AM EDT 7:12 PM EDT
Nautical Twilight 6:45 AM EDT 7:42 PM EDT
Astronomical Twilight 6:15 AM EDT 8:12 PM EDT
Moon 4:33 AM EDT 5:04 PM EDT
Length of Visible Light 11h 57m
Length of Day
11h 04m
Waning Crescent, 9% of the Moon is Illuminated
Today
Waning Crescent
Oct 23
New
Oct 30
First Quarter
Nov 6
Full
Nov 14
Last Quarter

Today's Extremes

State Highs State Lows

Community

WunderPhotos

Upload Photos

1,763,525 photos uploaded!

WunderBlogs® & News

Nearby

Snow Depth

Station Depth Elevation
No new snow has been reported.

Earthquake Activity

City Distance Mag. Time & Date
No recent earthquake activity has been reported nearby.
Minimum magnitude displayed is 2.5.

Coastal Water Temperatures

Place Temperature
No Stations Reporting

Nearby Weather Stations